createdAt,value
2018-08-23T00:00:45.245Z,63.10
2018-08-23T00:06:14.446Z,63.40
2018-08-23T00:11:47.488Z,63.50
2018-08-23T00:17:16.767Z,63.90
2018-08-23T00:22:46.097Z,64.00
2018-08-23T00:28:18.836Z,64.40
2018-08-23T00:33:49.184Z,64.30
2018-08-23T00:39:18.444Z,64.70
2018-08-23T00:44:58.522Z,64.90
2018-08-23T00:51:06.700Z,65.10
2018-08-23T00:56:35.945Z,65.20
2018-08-23T01:02:07.795Z,65.30
2018-08-23T01:07:37.103Z,65.60
2018-08-23T01:13:06.368Z,65.90
2018-08-23T01:18:35.721Z,66.00
2018-08-23T01:24:06.092Z,66.40
2018-08-23T01:29:35.432Z,66.60
2018-08-23T01:35:04.731Z,66.70
2018-08-23T01:40:35.049Z,67.00
2018-08-23T01:46:04.293Z,67.20
2018-08-23T01:51:33.697Z,67.30
2018-08-23T01:57:02.901Z,67.60
2018-08-23T02:02:32.108Z,67.90
2018-08-23T02:08:01.360Z,68.00
2018-08-23T02:13:31.510Z,68.20
2018-08-23T02:19:00.792Z,68.40
2018-08-23T02:24:33.832Z,68.50
2018-08-23T02:30:03.196Z,68.50
2018-08-23T02:35:32.457Z,68.70
2018-08-23T02:41:01.648Z,68.90
2018-08-23T02:46:33.090Z,68.80
2018-08-23T02:52:04.236Z,68.70
2018-08-23T02:57:33.468Z,68.60
2018-08-23T03:03:02.703Z,68.40
2018-08-23T03:08:43.918Z,68.70
2018-08-23T03:14:13.243Z,68.30
2018-08-23T03:20:02.620Z,68.30
2018-08-23T03:25:31.862Z,68.20
2018-08-23T03:31:02.708Z,68.30
2018-08-23T03:36:31.902Z,68.20
2018-08-23T03:42:01.163Z,68.20
2018-08-23T03:47:39.535Z,68.10
2018-08-23T03:53:08.838Z,68.10
2018-08-23T03:58:38.187Z,68.10
2018-08-23T04:04:08.174Z,68.20
2018-08-23T04:09:37.632Z,68.10
2018-08-23T04:15:28.153Z,68.10
2018-08-23T04:20:58.507Z,68.20
2018-08-23T04:26:28.851Z,68.20
2018-08-23T04:31:58.480Z,68.30
2018-08-23T04:37:29.972Z,68.30
2018-08-23T04:42:59.214Z,68.40
2018-08-23T04:48:30.685Z,68.50
2018-08-23T04:53:59.917Z,68.30
2018-08-23T04:59:29.260Z,68.50
2018-08-23T05:04:58.563Z,68.40
2018-08-23T05:10:27.827Z,68.30
2018-08-23T05:15:57.083Z,68.10
2018-08-23T05:21:26.283Z,67.90
2018-08-23T05:26:55.494Z,67.70
2018-08-23T05:32:24.725Z,67.50
2018-08-23T05:37:53.944Z,67.30
2018-08-23T05:43:23.747Z,67.10
2018-08-23T05:48:53.430Z,66.90
2018-08-23T05:54:22.760Z,66.70
2018-08-23T05:59:52.001Z,66.40
2018-08-23T06:05:21.263Z,66.10
2018-08-23T06:10:57.427Z,65.90
2018-08-23T06:16:26.753Z,65.60
2018-08-23T06:21:56.039Z,65.10
2018-08-23T06:27:26.365Z,64.90
2018-08-23T06:33:00.826Z,64.60
2018-08-23T06:38:30.688Z,63.90
2018-08-23T06:43:59.867Z,63.40
2018-08-23T06:49:33.661Z,62.80
2018-08-23T06:55:03.024Z,62.30
2018-08-23T07:00:32.809Z,61.20
2018-08-23T07:06:02.044Z,60.50
2018-08-23T07:11:31.248Z,59.50
2018-08-23T07:17:15.131Z,59.30
2018-08-23T07:22:44.609Z,58.30
2018-08-23T07:28:14.081Z,57.60
2018-08-23T07:33:45.378Z,57.30
2018-08-23T07:39:16.055Z,56.80
2018-08-23T07:44:48.407Z,56.00
2018-08-23T07:50:17.657Z,55.60
2018-08-23T07:55:46.896Z,55.20
2018-08-23T08:01:16.164Z,55.40
2018-08-23T08:06:45.487Z,55.10
2018-08-23T08:12:20.174Z,54.80
2018-08-23T08:17:49.435Z,54.50
2018-08-23T08:23:18.649Z,54.70
2018-08-23T08:28:47.933Z,54.40
2018-08-23T08:34:17.319Z,54.70
2018-08-23T08:39:46.536Z,53.20
2018-08-23T08:45:15.907Z,52.80
2018-08-23T08:50:50.903Z,52.10
2018-08-23T08:56:32.992Z,52.00
2018-08-23T09:02:02.216Z,51.60
2018-08-23T09:07:32.552Z,51.40
2018-08-23T09:13:01.731Z,51.00
2018-08-23T09:18:30.988Z,50.90
2018-08-23T09:24:24.449Z,50.20
2018-08-23T09:29:53.664Z,50.00
2018-08-23T09:35:27.463Z,49.10
2018-08-23T09:40:56.659Z,49.10
2018-08-23T09:46:25.892Z,48.60
2018-08-23T09:51:55.047Z,48.00
2018-08-23T09:57:24.831Z,47.10
2018-08-23T10:02:59.269Z,47.40
2018-08-23T10:08:33.753Z,47.00
2018-08-23T10:14:08.063Z,47.00
2018-08-23T10:19:42.517Z,46.40
2018-08-23T10:25:45.961Z,46.20
2018-08-23T10:31:15.206Z,45.40
2018-08-23T10:36:44.488Z,44.80
2018-08-23T10:42:16.764Z,45.50
2018-08-23T10:47:51.236Z,45.00
2018-08-23T10:53:20.471Z,45.30
2018-08-23T10:58:49.679Z,45.20
2018-08-23T11:04:19.059Z,44.80
2018-08-23T11:09:53.778Z,43.30
2018-08-23T11:15:22.875Z,43.50
2018-08-23T11:20:52.156Z,43.40
2018-08-23T11:26:23.008Z,42.70
2018-08-23T11:31:52.272Z,42.70
2018-08-23T11:37:21.430Z,42.90
2018-08-23T11:42:50.755Z,43.60
2018-08-23T11:48:19.927Z,44.00
2018-08-23T11:53:49.190Z,44.80
2018-08-23T11:59:18.466Z,44.30
2018-08-23T12:04:47.669Z,44.40
2018-08-23T12:10:18.908Z,44.20
2018-08-23T12:15:48.096Z,44.70
2018-08-23T12:21:17.297Z,45.10
2018-08-23T12:26:46.507Z,43.90
2018-08-23T12:32:15.844Z,44.30
2018-08-23T12:37:55.191Z,44.20
2018-08-23T12:43:29.651Z,44.10
2018-08-23T12:48:59.176Z,44.30
2018-08-23T12:54:28.409Z,43.90
2018-08-23T12:59:57.627Z,42.90
2018-08-23T13:05:26.897Z,43.60
2018-08-23T13:10:56.233Z,42.90
2018-08-23T13:16:25.429Z,42.70
2018-08-23T13:21:59.892Z,41.60
2018-08-23T13:27:31.546Z,41.60
2018-08-23T13:33:00.717Z,41.10
2018-08-23T13:38:29.930Z,41.20
2018-08-23T13:43:59.221Z,42.30
2018-08-23T13:49:28.468Z,42.40
2018-08-23T13:54:57.660Z,43.00
2018-08-23T14:00:32.180Z,43.60
2018-08-23T14:06:01.443Z,44.10
2018-08-23T14:11:30.600Z,44.80
2018-08-23T14:17:00.202Z,44.80
2018-08-23T14:22:29.396Z,45.20
2018-08-23T14:27:58.622Z,45.30
2018-08-23T14:33:32.584Z,45.70
2018-08-23T14:39:01.780Z,44.90
2018-08-23T14:44:31.031Z,44.60
2018-08-23T14:50:00.475Z,45.50
2018-08-23T14:56:35.147Z,45.30
2018-08-23T15:02:04.684Z,47.40
2018-08-23T15:07:33.882Z,49.10
2018-08-23T15:13:03.039Z,49.80
2018-08-23T15:18:32.265Z,49.90
2018-08-23T15:24:01.575Z,52.60
2018-08-23T15:29:30.775Z,54.70
2018-08-23T15:34:59.992Z,57.20
2018-08-23T15:40:29.210Z,59.10
2018-08-23T15:45:58.390Z,60.00
2018-08-23T15:51:27.601Z,60.40
2018-08-23T15:56:56.767Z,62.10
2018-08-23T16:02:26.479Z,62.20
2018-08-23T16:07:55.902Z,61.80
2018-08-23T16:13:25.212Z,63.50
2018-08-23T16:19:00.536Z,63.80
2018-08-23T16:24:29.767Z,64.40
2018-08-23T16:29:58.975Z,64.60
2018-08-23T16:35:28.176Z,64.50
2018-08-23T16:40:57.411Z,63.70
2018-08-23T16:46:26.600Z,63.30
2018-08-23T16:51:55.781Z,63.20
2018-08-23T16:57:25.035Z,62.70
2018-08-23T17:02:55.437Z,62.20
2018-08-23T17:08:25.092Z,62.20
2018-08-23T17:13:54.340Z,62.20
2018-08-23T17:19:23.626Z,62.30
2018-08-23T17:24:52.848Z,62.60
2018-08-23T17:30:22.071Z,62.60
2018-08-23T17:35:51.336Z,62.50
2018-08-23T17:41:20.569Z,62.70
2018-08-23T17:46:51.120Z,62.90
2018-08-23T17:52:20.363Z,63.20
2018-08-23T17:57:49.623Z,63.00
2018-08-23T18:03:18.955Z,62.70
2018-08-23T18:08:52.766Z,61.10
2018-08-23T18:14:22.067Z,60.40
2018-08-23T18:19:51.554Z,59.70
2018-08-23T18:25:20.856Z,59.50
2018-08-23T18:30:50.033Z,60.40
2018-08-23T18:36:19.764Z,59.90
2018-08-23T18:41:49.410Z,64.00
2018-08-23T18:47:20.367Z,65.40
2018-08-23T18:52:49.716Z,65.70
2018-08-23T18:58:19.040Z,66.30
2018-08-23T19:03:48.403Z,66.50
2018-08-23T19:09:17.757Z,66.80
2018-08-23T19:14:47.041Z,66.70
2018-08-23T19:20:16.355Z,66.90
2018-08-23T19:25:47.654Z,66.60
2018-08-23T19:31:17.001Z,66.40
2018-08-23T19:36:46.337Z,66.40
2018-08-23T19:42:15.722Z,66.10
2018-08-23T19:47:57.045Z,66.30
2018-08-23T19:53:26.316Z,66.30
2018-08-23T19:58:55.586Z,66.10
2018-08-23T20:04:24.953Z,66.10
2018-08-23T20:09:54.233Z,66.50
2018-08-23T20:15:25.393Z,67.00
2018-08-23T20:20:54.675Z,67.90
2018-08-23T20:26:24.138Z,68.40
2018-08-23T20:31:56.587Z,68.80
2018-08-23T20:37:25.779Z,69.20
2018-08-23T20:42:55.000Z,69.60
2018-08-23T20:48:24.391Z,69.80
2018-08-23T20:53:53.651Z,70.20
2018-08-23T20:59:22.955Z,70.50
2018-08-23T21:04:52.616Z,70.70
2018-08-23T21:10:22.064Z,70.90
2018-08-23T21:15:51.560Z,70.90
2018-08-23T21:21:20.972Z,70.90
2018-08-23T21:26:50.224Z,70.60
2018-08-23T21:32:20.480Z,70.40
2018-08-23T21:37:49.933Z,70.40
2018-08-23T21:43:19.198Z,70.40
2018-08-23T21:48:48.424Z,70.30
2018-08-23T21:54:17.710Z,70.40
2018-08-23T21:59:47.111Z,70.10
2018-08-23T22:05:17.471Z,70.00
2018-08-23T22:10:46.744Z,69.80
2018-08-23T22:16:16.064Z,70.10
2018-08-23T22:21:45.325Z,70.50
2018-08-23T22:27:14.827Z,70.70
2018-08-23T22:32:44.348Z,70.80
2018-08-23T22:38:13.753Z,70.90
2018-08-23T22:43:43.091Z,71.30
2018-08-23T22:49:12.481Z,71.30
2018-08-23T22:54:41.832Z,71.60
2018-08-23T23:00:11.072Z,71.80
2018-08-23T23:05:40.428Z,71.40
2018-08-23T23:11:10.599Z,71.20
2018-08-23T23:16:39.904Z,71.20
2018-08-23T23:22:09.219Z,71.10
2018-08-23T23:27:38.442Z,71.20
2018-08-23T23:33:08.080Z,71.20
2018-08-23T23:38:37.364Z,71.20
2018-08-23T23:44:06.630Z,71.20
2018-08-23T23:49:35.823Z,71.30
2018-08-23T23:55:05.149Z,71.30
